createdAt,value
2023-05-05T00:00:57.703Z,42.99
2023-05-05T00:03:24.366Z,42.99
2023-05-05T00:05:50.968Z,43.02
2023-05-05T00:08:17.466Z,43.16
2023-05-05T00:10:43.947Z,43.01
2023-05-05T00:13:10.630Z,43.09
2023-05-05T00:15:37.287Z,43.11
2023-05-05T00:18:03.767Z,43.03
2023-05-05T00:20:30.447Z,43.01
2023-05-05T00:22:56.976Z,43.12
2023-05-05T00:25:23.567Z,43.31
2023-05-05T00:27:50.056Z,42.90
2023-05-05T00:30:16.592Z,42.98
2023-05-05T00:32:43.149Z,43.21
2023-05-05T00:35:09.667Z,43.06
2023-05-05T00:37:39.037Z,43.36
2023-05-05T00:40:05.612Z,42.98
2023-05-05T00:42:32.291Z,42.87
2023-05-05T00:44:58.798Z,42.87
2023-05-05T00:47:25.339Z,42.88
2023-05-05T00:49:51.932Z,42.80
2023-05-05T00:52:18.450Z,43.42
2023-05-05T00:54:44.973Z,43.19
2023-05-05T00:57:11.443Z,42.99
2023-05-05T00:59:38.010Z,42.97
2023-05-05T01:02:04.525Z,43.03
2023-05-05T01:04:31.050Z,42.59
2023-05-05T01:06:57.547Z,42.88
2023-05-05T01:09:24.013Z,43.10
2023-05-05T01:11:50.525Z,42.82
2023-05-05T01:14:17.037Z,42.85
2023-05-05T01:16:43.576Z,43.05
2023-05-05T01:19:10.108Z,42.89
2023-05-05T01:21:36.560Z,43.08
2023-05-05T01:24:03.081Z,42.79
2023-05-05T01:26:29.641Z,42.84
2023-05-05T01:28:56.185Z,42.71
2023-05-05T01:31:22.761Z,42.84
2023-05-05T01:33:49.343Z,42.66
2023-05-05T01:36:17.336Z,42.96
2023-05-05T01:38:43.763Z,42.68
2023-05-05T01:41:10.274Z,43.11
2023-05-05T01:43:39.755Z,42.89
2023-05-05T01:46:06.258Z,42.68
2023-05-05T01:48:32.779Z,42.64
2023-05-05T01:50:59.267Z,42.50
2023-05-05T01:53:25.791Z,42.60
2023-05-05T01:55:52.212Z,43.02
2023-05-05T01:58:18.678Z,42.74
2023-05-05T02:00:45.086Z,43.00
2023-05-05T02:03:11.642Z,43.09
2023-05-05T02:05:38.214Z,43.01
2023-05-05T02:08:04.679Z,43.01
2023-05-05T02:10:31.161Z,43.03
2023-05-05T02:12:57.734Z,42.83
2023-05-05T02:15:24.295Z,42.90
2023-05-05T02:17:50.897Z,42.94
2023-05-05T02:20:17.437Z,42.58
2023-05-05T02:22:43.946Z,42.55
2023-05-05T02:25:10.496Z,42.72
2023-05-05T02:27:36.967Z,43.15
2023-05-05T02:30:03.551Z,42.65
2023-05-05T02:32:30.147Z,43.12
2023-05-05T02:34:56.747Z,42.84
2023-05-05T02:37:23.326Z,42.85
2023-05-05T02:39:49.890Z,42.87
2023-05-05T02:42:16.434Z,42.59
2023-05-05T02:44:42.977Z,42.74
2023-05-05T02:47:09.510Z,42.72
2023-05-05T02:49:36.044Z,42.72
2023-05-05T02:52:02.516Z,42.82
2023-05-05T02:54:29.053Z,42.70
2023-05-05T02:56:55.592Z,43.09
2023-05-05T02:59:22.131Z,42.71
2023-05-05T03:01:48.668Z,42.63
2023-05-05T03:04:15.184Z,42.46
2023-05-05T03:06:41.638Z,42.67
2023-05-05T03:09:08.156Z,42.85
2023-05-05T03:11:34.690Z,42.84
2023-05-05T03:14:01.319Z,42.79
2023-05-05T03:16:27.835Z,42.70
2023-05-05T03:18:54.352Z,42.85
2023-05-05T03:21:20.833Z,42.95
2023-05-05T03:23:47.306Z,42.86
2023-05-05T03:26:13.767Z,42.49
2023-05-05T03:28:40.239Z,42.71
2023-05-05T03:31:06.711Z,43.11
2023-05-05T03:33:33.378Z,42.53
2023-05-05T03:35:59.890Z,42.71
2023-05-05T03:38:26.416Z,42.64
2023-05-05T03:40:52.840Z,42.70
2023-05-05T03:43:19.254Z,42.87
2023-05-05T03:45:45.679Z,42.72
2023-05-05T03:48:12.201Z,42.57
2023-05-05T03:50:38.686Z,42.42
2023-05-05T03:53:05.217Z,42.52
2023-05-05T03:55:31.656Z,42.75
2023-05-05T03:57:58.049Z,42.58
2023-05-05T04:00:24.520Z,42.54
2023-05-05T04:02:51.088Z,42.66
2023-05-05T04:05:17.554Z,42.66
2023-05-05T04:07:43.951Z,42.50
2023-05-05T04:10:10.544Z,42.48
2023-05-05T04:12:37.145Z,42.68
2023-05-05T04:17:29.798Z,42.38
2023-05-05T04:19:56.291Z,42.47
2023-05-05T04:22:22.764Z,42.43
2023-05-05T04:24:49.226Z,42.33
2023-05-05T04:27:15.693Z,42.54
2023-05-05T04:29:42.204Z,42.32
2023-05-05T04:32:08.686Z,42.36
2023-05-05T04:34:35.132Z,42.22
2023-05-05T04:37:01.673Z,42.46
2023-05-05T04:39:28.095Z,42.54
2023-05-05T04:41:54.655Z,42.33
2023-05-05T04:44:21.192Z,42.39
2023-05-05T04:46:47.859Z,42.29
2023-05-05T04:49:14.440Z,42.37
2023-05-05T04:51:40.962Z,43.08
2023-05-05T04:54:07.449Z,42.82
2023-05-05T04:56:33.910Z,43.01
2023-05-05T04:59:00.499Z,43.15
2023-05-05T05:01:27.123Z,43.18
2023-05-05T05:03:53.788Z,43.35
2023-05-05T05:06:20.310Z,42.99
2023-05-05T05:08:46.839Z,42.66
2023-05-05T05:11:13.322Z,42.95
2023-05-05T05:13:39.921Z,43.32
2023-05-05T05:16:06.485Z,43.29
2023-05-05T05:18:33.009Z,43.16
2023-05-05T05:20:59.518Z,43.29
2023-05-05T05:23:26.054Z,42.92
2023-05-05T05:25:52.626Z,42.76
2023-05-05T05:28:19.186Z,42.81
2023-05-05T05:30:45.713Z,42.77
2023-05-05T05:33:12.338Z,42.63
2023-05-05T05:35:38.881Z,42.54
2023-05-05T05:38:05.346Z,42.20
2023-05-05T05:40:31.961Z,42.49
2023-05-05T05:42:58.500Z,42.31
2023-05-05T05:45:24.982Z,42.53
2023-05-05T05:47:51.514Z,42.38
2023-05-05T05:50:17.984Z,42.73
2023-05-05T05:52:44.553Z,42.78
2023-05-05T05:55:11.134Z,42.98
2023-05-05T07:25:51.204Z,43.30
2023-05-05T07:28:17.694Z,43.36
2023-05-05T07:30:44.293Z,43.62
2023-05-05T07:33:10.890Z,43.84
2023-05-05T07:35:37.443Z,44.11
2023-05-05T07:38:03.916Z,44.72
2023-05-05T07:40:30.452Z,43.70
2023-05-05T07:42:56.962Z,43.84
2023-05-05T07:45:23.507Z,44.52
2023-05-05T07:47:50.083Z,44.73
2023-05-05T07:50:16.544Z,44.09
2023-05-05T07:52:48.373Z,44.17
2023-05-05T07:55:20.317Z,44.95
2023-05-05T07:57:46.860Z,45.32
2023-05-05T08:00:13.411Z,45.63
2023-05-05T08:02:40.105Z,45.01
2023-05-05T08:05:07.019Z,44.77
2023-05-05T08:07:33.656Z,44.92
2023-05-05T08:10:00.225Z,44.85
2023-05-05T08:12:26.716Z,44.94
2023-05-05T08:14:53.234Z,44.74
2023-05-05T08:17:19.768Z,45.01
2023-05-05T08:19:46.278Z,44.89
2023-05-05T08:22:12.733Z,44.83
2023-05-05T08:24:39.192Z,44.94
2023-05-05T08:27:05.774Z,45.05
2023-05-05T08:29:32.222Z,44.51
2023-05-05T08:31:59.000Z,44.71
2023-05-05T08:34:25.520Z,44.85
2023-05-05T08:36:52.032Z,44.65
2023-05-05T08:39:18.502Z,44.67
2023-05-05T08:41:45.010Z,44.67
2023-05-05T08:44:11.520Z,44.71
2023-05-05T08:46:38.039Z,44.76
2023-05-05T08:49:04.609Z,44.46
2023-05-05T08:51:31.117Z,44.77
2023-05-05T08:53:57.581Z,44.70
2023-05-05T08:56:24.122Z,44.71
2023-05-05T08:58:50.593Z,44.56
2023-05-05T09:01:17.184Z,44.58
2023-05-05T09:03:44.165Z,44.66
2023-05-05T09:06:10.670Z,44.57
2023-05-05T09:08:37.093Z,44.49
2023-05-05T09:11:03.567Z,44.56
2023-05-05T09:13:30.055Z,44.21
2023-05-05T09:15:56.561Z,44.51
2023-05-05T09:18:23.008Z,44.46
2023-05-05T09:20:49.473Z,44.10
2023-05-05T09:23:15.930Z,44.35
2023-05-05T09:25:42.414Z,43.82
2023-05-05T09:28:08.889Z,44.60
2023-05-05T09:30:35.450Z,44.35
2023-05-05T09:33:01.943Z,44.58
2023-05-05T09:35:28.416Z,44.16
2023-05-05T09:37:54.916Z,44.25
2023-05-05T09:40:21.576Z,44.71
2023-05-05T09:42:48.210Z,44.24
2023-05-05T09:45:14.684Z,44.10
2023-05-05T09:47:41.238Z,43.66
2023-05-05T09:50:08.106Z,43.79
2023-05-05T09:52:34.788Z,43.86
2023-05-05T09:55:01.255Z,43.64
2023-05-05T09:57:27.776Z,43.69
2023-05-05T09:59:54.350Z,43.53
2023-05-05T10:02:20.817Z,43.47
2023-05-05T10:04:47.947Z,43.45
2023-05-05T10:07:14.521Z,43.33
2023-05-05T10:09:41.101Z,43.29
2023-05-05T10:12:07.669Z,43.19
2023-05-05T10:14:34.168Z,43.16
2023-05-05T10:17:00.607Z,43.29
2023-05-05T10:19:27.096Z,43.21
2023-05-05T10:21:53.624Z,43.41
2023-05-05T10:24:20.106Z,42.97
2023-05-05T10:26:46.521Z,42.72
2023-05-05T10:29:12.958Z,42.85
2023-05-05T10:31:39.529Z,42.66
2023-05-05T10:34:06.070Z,42.82
2023-05-05T10:36:32.693Z,42.68
2023-05-05T10:38:59.140Z,42.52
2023-05-05T10:41:25.625Z,42.79
2023-05-05T10:43:52.222Z,42.60
2023-05-05T10:46:18.815Z,42.32
2023-05-05T10:48:45.299Z,42.78
2023-05-05T10:51:11.870Z,42.58
2023-05-05T10:53:38.390Z,42.23
2023-05-05T10:56:04.957Z,42.38
2023-05-05T10:58:31.470Z,42.44
2023-05-05T11:00:58.040Z,42.38
2023-05-05T11:03:24.656Z,42.31
2023-05-05T11:05:51.166Z,42.12
2023-05-05T11:08:17.612Z,42.20
2023-05-05T11:10:44.242Z,42.00
2023-05-05T11:13:10.822Z,42.25
2023-05-05T14:11:41.562Z,40.10
2023-05-05T14:14:08.126Z,39.97
2023-05-05T14:16:34.765Z,39.72
2023-05-05T14:19:01.292Z,39.43
2023-05-05T14:21:27.838Z,39.52
2023-05-05T14:23:54.401Z,39.71
2023-05-05T14:26:20.970Z,39.70
2023-05-05T14:28:49.755Z,39.46
2023-05-05T14:31:16.657Z,39.26
2023-05-05T14:33:43.099Z,39.32
2023-05-05T14:36:09.720Z,38.98
2023-05-05T14:38:36.316Z,38.66
2023-05-05T14:41:02.886Z,39.01
2023-05-05T14:43:29.367Z,38.86
2023-05-05T14:45:55.899Z,38.66
2023-05-05T14:48:22.667Z,38.64
2023-05-05T14:50:49.348Z,38.61
2023-05-05T14:53:15.844Z,38.30
2023-05-05T14:55:42.310Z,38.24
2023-05-05T14:58:09.425Z,38.42
2023-05-05T15:00:35.999Z,38.12
2023-05-05T15:03:02.586Z,37.80
2023-05-05T15:05:29.223Z,38.06
2023-05-05T15:07:55.786Z,37.78
2023-05-05T15:10:22.289Z,37.61
2023-05-05T15:12:48.820Z,37.47
2023-05-05T15:15:15.340Z,37.33
2023-05-05T15:17:41.874Z,37.08
2023-05-05T15:20:08.458Z,37.05
2023-05-05T15:22:34.974Z,37.03
2023-05-05T15:25:01.564Z,37.14
2023-05-05T15:27:28.163Z,37.15
2023-05-05T15:29:54.615Z,36.92
2023-05-05T15:32:21.062Z,37.26
2023-05-05T15:34:49.571Z,36.87
2023-05-05T15:37:16.810Z,37.10
2023-05-05T15:39:43.277Z,36.82
2023-05-05T15:42:09.719Z,36.82
2023-05-05T15:44:36.145Z,36.91
2023-05-05T15:47:02.705Z,37.55
2023-05-05T15:49:29.256Z,37.92
2023-05-05T15:51:55.917Z,39.06
2023-05-05T15:54:22.452Z,39.07
2023-05-05T15:56:48.961Z,39.83
2023-05-05T15:59:15.447Z,39.77
2023-05-05T16:01:41.907Z,39.93
2023-05-05T16:04:08.455Z,40.04
2023-05-05T16:06:34.983Z,40.26
2023-05-05T16:09:01.418Z,39.88
2023-05-05T16:11:27.899Z,40.13
2023-05-05T16:13:54.417Z,39.58
2023-05-05T16:16:20.926Z,39.96
2023-05-05T16:18:47.512Z,39.80
2023-05-05T16:21:13.977Z,40.00
2023-05-05T16:23:40.488Z,40.24
2023-05-05T16:26:06.953Z,39.00
2023-05-05T16:28:33.476Z,38.32
2023-05-05T16:30:59.967Z,37.74
2023-05-05T16:33:26.470Z,37.13
2023-05-05T16:35:53.023Z,38.08
2023-05-05T16:38:19.602Z,38.36
2023-05-05T16:40:46.146Z,38.89
2023-05-05T16:43:12.664Z,38.82
2023-05-05T16:45:39.209Z,38.36
2023-05-05T16:48:07.499Z,39.04
2023-05-05T16:50:35.550Z,38.75
2023-05-05T16:53:02.037Z,38.63
2023-05-05T16:55:28.553Z,38.97
2023-05-05T16:57:55.015Z,38.84
2023-05-05T17:00:21.452Z,38.96
2023-05-05T17:02:47.958Z,39.65
2023-05-05T17:05:14.547Z,39.59
2023-05-05T17:07:41.032Z,40.27
2023-05-05T17:10:07.531Z,39.90
2023-05-05T17:12:33.999Z,39.96
2023-05-05T17:15:00.469Z,40.07
2023-05-05T17:17:26.972Z,40.27
2023-05-05T17:19:53.489Z,39.95
2023-05-05T17:22:19.945Z,40.23
2023-05-05T17:24:46.393Z,40.16
2023-05-05T17:27:12.889Z,40.42
2023-05-05T17:29:39.406Z,40.51
2023-05-05T17:32:06.046Z,40.78
2023-05-05T17:34:32.668Z,41.00
2023-05-05T17:36:59.132Z,41.35
2023-05-05T17:39:25.577Z,41.22
2023-05-05T17:41:51.984Z,41.44
2023-05-05T17:44:18.387Z,41.53
2023-05-05T17:46:44.936Z,41.80
2023-05-05T17:49:11.542Z,41.78
2023-05-05T17:51:38.047Z,41.51
2023-05-05T17:54:04.511Z,41.48
2023-05-05T17:56:30.949Z,42.04
2023-05-05T17:58:57.419Z,41.77
2023-05-05T18:01:24.022Z,41.80
2023-05-05T18:03:50.599Z,42.01
2023-05-05T18:06:17.185Z,42.15
2023-05-05T18:08:43.756Z,41.81
2023-05-05T18:11:10.188Z,41.98
2023-05-05T18:13:36.649Z,42.09
2023-05-05T18:16:03.158Z,41.74
2023-05-05T18:18:29.783Z,41.26
2023-05-05T18:20:56.248Z,40.21
2023-05-05T18:23:22.707Z,40.50
2023-05-05T18:25:49.273Z,40.13
2023-05-05T18:28:15.805Z,40.08
2023-05-05T18:30:42.329Z,40.61
2023-05-05T18:33:08.842Z,40.63
2023-05-05T18:35:35.380Z,41.06
2023-05-05T18:38:01.975Z,40.88
2023-05-05T18:40:28.454Z,41.04
2023-05-05T18:42:54.975Z,41.08
2023-05-05T18:45:21.506Z,41.18
2023-05-05T18:47:48.117Z,41.42
2023-05-05T18:50:14.660Z,41.56
2023-05-05T18:52:41.192Z,41.67
2023-05-05T18:55:07.913Z,41.74
2023-05-05T18:57:34.603Z,41.83
2023-05-05T19:00:01.099Z,41.73
2023-05-05T19:02:27.692Z,41.76
2023-05-05T19:04:54.245Z,41.78
2023-05-05T19:07:33.776Z,42.04
2023-05-05T19:10:01.387Z,41.75
2023-05-05T19:12:27.927Z,41.84
2023-05-05T19:14:54.417Z,41.98
2023-05-05T19:17:20.985Z,42.18
2023-05-05T19:19:47.498Z,42.04
2023-05-05T19:22:14.081Z,41.99
2023-05-05T19:24:40.616Z,42.29
2023-05-05T19:27:07.059Z,42.10
